Accueil
METAR-TAF:

METAR-TAF

Aéroports :

Base aérienne Cameri

Novare, Italie

latitude: 45-31N, longitude: 008-40E, altitude: 178 m

Observation

Le bulletin a été fait il y a 1 heure et 2 minutes, à 06:55 UTC
Vent 4 kt de nord/nord-ouest
Température -2°C
Humidité 80%
Pression 1042 hPa
Visibilité 10 km ou plus
pas de nuages en-dessous de 1500 mètres et pas de cumulonimbus.

METAR: LIMN 210655Z 33004KT CAVOK M02/M05 Q1042 RMK FEW FEW100 VIS MIN 9999 BLU

Heure: 08:57 (07:57 UTC)

Prévision

Le bulletin a été fait il y a 2 heures et 57 minutes, à 05:00 UTC
Prévision valable du 21 à 06 UTC au 21 à 15 UTC
Vent 5 kt de direction variable
Visibilité 10 km ou plus
pas de nuages en-dessous de 1500 mètres et pas de cumulonimbus.

TAF: LIMN 210500Z 2106/2115 VRB05KT CAVOK

Observations et prévisions météorologiques de plus de 4000 aéroports (messages METAR et TAF).

Les stations disponibles sont représentées par des disques jaunes et rouges sur la carte.

Passer la souris dessus pour voir le nom de la station.

Cliquer dessus pour voir les observations et prévisions météorologiques.

Pour changer de carte: cliquez sur les boutons verts avec une croix noire pour zoomer, sur le bouton vert avec un tiret pour effectuer un zoom arrière, ou sur les flèches vertes pour les cartes adjacentes.


METAR-TAF: